sensor_id;sensor_type;location;lat;lon;timestamp;P1;durP1;ratioP1;P2;durP2;ratioP2
33104;SDS011;19476;51.448;6.674;2023-07-02T00:03:38;3.00;;;1.27;;
33104;SDS011;19476;51.448;6.674;2023-07-02T00:09:26;2.63;;;1.33;;
33104;SDS011;19476;51.448;6.674;2023-07-02T00:11:52;4.82;;;1.85;;
33104;SDS011;19476;51.448;6.674;2023-07-02T00:14:17;4.78;;;1.63;;
33104;SDS011;19476;51.448;6.674;2023-07-02T00:16:44;2.95;;;1.48;;
33104;SDS011;19476;51.448;6.674;2023-07-02T00:19:11;3.17;;;1.67;;
33104;SDS011;19476;51.448;6.674;2023-07-02T00:24:07;3.92;;;1.83;;
33104;SDS011;19476;51.448;6.674;2023-07-02T00:26:36;2.75;;;1.42;;
33104;SDS011;19476;51.448;6.674;2023-07-02T00:29:06;4.05;;;1.73;;
33104;SDS011;19476;51.448;6.674;2023-07-02T00:31:34;4.45;;;2.25;;
33104;SDS011;19476;51.448;6.674;2023-07-02T00:34:00;4.20;;;1.85;;
33104;SDS011;19476;51.448;6.674;2023-07-02T00:36:27;3.88;;;2.20;;
33104;SDS011;19476;51.448;6.674;2023-07-02T00:38:54;5.10;;;2.00;;
33104;SDS011;19476;51.448;6.674;2023-07-02T00:41:20;5.50;;;1.73;;
33104;SDS011;19476;51.448;6.674;2023-07-02T00:43:46;4.57;;;2.10;;
33104;SDS011;19476;51.448;6.674;2023-07-02T00:46:15;3.97;;;1.80;;
33104;SDS011;19476;51.448;6.674;2023-07-02T00:48:50;3.92;;;2.08;;
33104;SDS011;19476;51.448;6.674;2023-07-02T00:53:47;5.15;;;2.40;;
33104;SDS011;19476;51.448;6.674;2023-07-02T00:56:14;3.83;;;1.80;;
33104;SDS011;19476;51.448;6.674;2023-07-02T00:58:41;5.13;;;2.08;;
33104;SDS011;19476;51.448;6.674;2023-07-02T01:01:20;3.90;;;2.17;;
33104;SDS011;19476;51.448;6.674;2023-07-02T01:04:00;7.13;;;2.80;;
33104;SDS011;19476;51.448;6.674;2023-07-02T01:08:57;4.03;;;2.13;;
33104;SDS011;19476;51.448;6.674;2023-07-02T01:14:20;6.68;;;2.25;;
33104;SDS011;19476;51.448;6.674;2023-07-02T01:16:52;5.03;;;2.33;;
33104;SDS011;19476;51.448;6.674;2023-07-02T01:19:21;4.65;;;2.28;;
33104;SDS011;19476;51.448;6.674;2023-07-02T01:21:59;6.25;;;2.00;;
33104;SDS011;19476;51.448;6.674;2023-07-02T01:24:25;6.00;;;2.75;;
33104;SDS011;19476;51.448;6.674;2023-07-02T01:26:51;4.93;;;2.50;;
33104;SDS011;19476;51.448;6.674;2023-07-02T01:29:19;5.20;;;2.08;;
33104;SDS011;19476;51.448;6.674;2023-07-02T01:31:46;5.95;;;2.70;;
33104;SDS011;19476;51.448;6.674;2023-07-02T01:34:12;6.75;;;2.55;;
33104;SDS011;19476;51.448;6.674;2023-07-02T01:36:38;5.35;;;2.58;;
33104;SDS011;19476;51.448;6.674;2023-07-02T01:39:04;4.95;;;2.22;;
33104;SDS011;19476;51.448;6.674;2023-07-02T01:41:33;6.78;;;2.95;;
33104;SDS011;19476;51.448;6.674;2023-07-02T01:44:02;4.60;;;2.60;;
33104;SDS011;19476;51.448;6.674;2023-07-02T01:46:28;5.75;;;2.67;;
33104;SDS011;19476;51.448;6.674;2023-07-02T01:48:54;6.35;;;3.05;;
33104;SDS011;19476;51.448;6.674;2023-07-02T01:51:20;6.22;;;3.03;;
33104;SDS011;19476;51.448;6.674;2023-07-02T01:53:46;7.32;;;3.35;;
33104;SDS011;19476;51.448;6.674;2023-07-02T01:56:12;5.97;;;2.97;;
33104;SDS011;19476;51.448;6.674;2023-07-02T01:58:38;8.70;;;3.50;;
33104;SDS011;19476;51.448;6.674;2023-07-02T02:01:04;6.78;;;3.63;;
33104;SDS011;19476;51.448;6.674;2023-07-02T02:03:29;8.77;;;3.45;;
33104;SDS011;19476;51.448;6.674;2023-07-02T02:05:55;7.28;;;3.67;;
33104;SDS011;19476;51.448;6.674;2023-07-02T02:08:21;6.38;;;3.10;;
33104;SDS011;19476;51.448;6.674;2023-07-02T02:10:47;8.07;;;3.67;;
33104;SDS011;19476;51.448;6.674;2023-07-02T02:13:13;8.82;;;3.28;;
33104;SDS011;19476;51.448;6.674;2023-07-02T02:15:38;8.88;;;3.83;;
33104;SDS011;19476;51.448;6.674;2023-07-02T02:18:06;8.70;;;4.03;;
33104;SDS011;19476;51.448;6.674;2023-07-02T02:20:32;8.00;;;3.95;;
33104;SDS011;19476;51.448;6.674;2023-07-02T02:22:58;10.32;;;4.32;;
33104;SDS011;19476;51.448;6.674;2023-07-02T02:25:24;8.07;;;4.07;;
33104;SDS011;19476;51.448;6.674;2023-07-02T02:27:50;8.32;;;3.80;;
33104;SDS011;19476;51.448;6.674;2023-07-02T02:30:15;9.98;;;4.30;;
33104;SDS011;19476;51.448;6.674;2023-07-02T02:32:41;8.35;;;4.47;;
33104;SDS011;19476;51.448;6.674;2023-07-02T02:35:07;10.70;;;5.20;;
33104;SDS011;19476;51.448;6.674;2023-07-02T02:37:34;11.25;;;5.88;;
33104;SDS011;19476;51.448;6.674;2023-07-02T02:40:02;11.13;;;5.60;;
33104;SDS011;19476;51.448;6.674;2023-07-02T02:42:28;10.73;;;5.30;;
33104;SDS011;19476;51.448;6.674;2023-07-02T02:44:54;12.20;;;5.80;;
33104;SDS011;19476;51.448;6.674;2023-07-02T02:47:19;12.93;;;5.90;;
33104;SDS011;19476;51.448;6.674;2023-07-02T02:49:45;11.52;;;5.90;;
33104;SDS011;19476;51.448;6.674;2023-07-02T02:52:11;14.30;;;5.40;;
33104;SDS011;19476;51.448;6.674;2023-07-02T02:54:39;13.50;;;5.97;;
33104;SDS011;19476;51.448;6.674;2023-07-02T02:57:05;12.48;;;5.82;;
33104;SDS011;19476;51.448;6.674;2023-07-02T02:59:30;12.57;;;5.07;;
33104;SDS011;19476;51.448;6.674;2023-07-02T03:01:56;12.40;;;5.88;;
33104;SDS011;19476;51.448;6.674;2023-07-02T03:04:22;12.13;;;5.50;;
33104;SDS011;19476;51.448;6.674;2023-07-02T03:06:50;12.27;;;6.28;;
33104;SDS011;19476;51.448;6.674;2023-07-02T03:09:16;12.18;;;6.38;;
33104;SDS011;19476;51.448;6.674;2023-07-02T03:11:43;13.73;;;6.13;;
33104;SDS011;19476;51.448;6.674;2023-07-02T03:14:08;11.25;;;6.30;;
33104;SDS011;19476;51.448;6.674;2023-07-02T03:16:34;13.75;;;6.20;;
33104;SDS011;19476;51.448;6.674;2023-07-02T03:19:00;14.40;;;6.60;;
33104;SDS011;19476;51.448;6.674;2023-07-02T03:21:26;12.93;;;6.55;;
33104;SDS011;19476;51.448;6.674;2023-07-02T03:23:52;11.27;;;5.60;;
33104;SDS011;19476;51.448;6.674;2023-07-02T03:26:17;13.23;;;6.50;;
33104;SDS011;19476;51.448;6.674;2023-07-02T03:28:46;11.90;;;5.95;;
33104;SDS011;19476;51.448;6.674;2023-07-02T03:31:12;12.27;;;6.15;;
33104;SDS011;19476;51.448;6.674;2023-07-02T03:33:37;13.20;;;6.97;;
33104;SDS011;19476;51.448;6.674;2023-07-02T03:36:03;11.63;;;5.90;;
33104;SDS011;19476;51.448;6.674;2023-07-02T03:38:29;14.57;;;7.18;;
33104;SDS011;19476;51.448;6.674;2023-07-02T03:40:55;13.07;;;6.72;;
33104;SDS011;19476;51.448;6.674;2023-07-02T03:43:21;10.35;;;5.95;;
33104;SDS011;19476;51.448;6.674;2023-07-02T03:45:47;13.27;;;6.70;;
33104;SDS011;19476;51.448;6.674;2023-07-02T03:48:13;13.77;;;7.10;;
33104;SDS011;19476;51.448;6.674;2023-07-02T03:50:38;15.18;;;7.63;;
33104;SDS011;19476;51.448;6.674;2023-07-02T03:53:04;13.32;;;6.30;;
33104;SDS011;19476;51.448;6.674;2023-07-02T03:55:30;13.45;;;7.20;;
33104;SDS011;19476;51.448;6.674;2023-07-02T03:57:56;14.35;;;6.53;;
33104;SDS011;19476;51.448;6.674;2023-07-02T04:00:22;17.00;;;7.50;;
33104;SDS011;19476;51.448;6.674;2023-07-02T04:02:48;12.70;;;6.93;;
33104;SDS011;19476;51.448;6.674;2023-07-02T04:05:14;13.50;;;6.72;;
33104;SDS011;19476;51.448;6.674;2023-07-02T04:07:39;13.35;;;7.10;;
33104;SDS011;19476;51.448;6.674;2023-07-02T04:10:05;16.67;;;7.75;;
33104;SDS011;19476;51.448;6.674;2023-07-02T04:12:32;14.60;;;7.10;;
33104;SDS011;19476;51.448;6.674;2023-07-02T04:14:58;15.65;;;7.38;;
33104;SDS011;19476;51.448;6.674;2023-07-02T04:17:23;18.65;;;7.93;;
33104;SDS011;19476;51.448;6.674;2023-07-02T04:19:49;14.20;;;7.47;;
33104;SDS011;19476;51.448;6.674;2023-07-02T04:22:15;13.02;;;7.38;;
33104;SDS011;19476;51.448;6.674;2023-07-02T04:24:41;15.48;;;7.60;;
33104;SDS011;19476;51.448;6.674;2023-07-02T04:27:06;16.45;;;7.63;;
33104;SDS011;19476;51.448;6.674;2023-07-02T04:29:32;16.90;;;7.32;;
33104;SDS011;19476;51.448;6.674;2023-07-02T04:31:58;13.75;;;7.65;;
33104;SDS011;19476;51.448;6.674;2023-07-02T04:34:24;12.75;;;6.65;;
33104;SDS011;19476;51.448;6.674;2023-07-02T04:36:49;13.27;;;7.20;;
33104;SDS011;19476;51.448;6.674;2023-07-02T04:39:15;13.00;;;6.85;;
33104;SDS011;19476;51.448;6.674;2023-07-02T04:41:41;18.58;;;7.93;;
33104;SDS011;19476;51.448;6.674;2023-07-02T04:44:07;18.77;;;8.77;;
33104;SDS011;19476;51.448;6.674;2023-07-02T04:46:33;16.17;;;8.30;;
33104;SDS011;19476;51.448;6.674;2023-07-02T04:48:59;17.08;;;7.80;;
33104;SDS011;19476;51.448;6.674;2023-07-02T04:51:25;17.13;;;8.90;;
33104;SDS011;19476;51.448;6.674;2023-07-02T04:53:51;17.02;;;7.78;;
33104;SDS011;19476;51.448;6.674;2023-07-02T04:56:17;14.57;;;7.63;;
33104;SDS011;19476;51.448;6.674;2023-07-02T04:58:43;13.32;;;7.70;;
33104;SDS011;19476;51.448;6.674;2023-07-02T05:01:08;14.18;;;7.53;;
33104;SDS011;19476;51.448;6.674;2023-07-02T05:03:34;14.38;;;7.90;;
33104;SDS011;19476;51.448;6.674;2023-07-02T05:06:00;15.95;;;7.68;;
33104;SDS011;19476;51.448;6.674;2023-07-02T05:08:26;15.55;;;7.88;;
33104;SDS011;19476;51.448;6.674;2023-07-02T05:10:51;16.35;;;8.45;;
33104;SDS011;19476;51.448;6.674;2023-07-02T05:13:17;16.45;;;8.70;;
33104;SDS011;19476;51.448;6.674;2023-07-02T05:15:43;15.15;;;8.10;;
33104;SDS011;19476;51.448;6.674;2023-07-02T05:18:09;15.63;;;8.45;;
33104;SDS011;19476;51.448;6.674;2023-07-02T05:20:35;16.17;;;7.57;;
33104;SDS011;19476;51.448;6.674;2023-07-02T05:23:01;21.77;;;8.18;;
33104;SDS011;19476;51.448;6.674;2023-07-02T05:25:27;17.88;;;8.48;;
33104;SDS011;19476;51.448;6.674;2023-07-02T05:27:53;15.68;;;8.55;;
33104;SDS011;19476;51.448;6.674;2023-07-02T05:30:19;17.60;;;8.75;;
33104;SDS011;19476;51.448;6.674;2023-07-02T05:32:44;14.35;;;7.85;;
33104;SDS011;19476;51.448;6.674;2023-07-02T05:35:10;14.63;;;7.72;;
33104;SDS011;19476;51.448;6.674;2023-07-02T05:37:36;17.98;;;8.57;;
33104;SDS011;19476;51.448;6.674;2023-07-02T05:40:02;15.82;;;8.55;;
33104;SDS011;19476;51.448;6.674;2023-07-02T05:42:28;19.75;;;9.18;;
33104;SDS011;19476;51.448;6.674;2023-07-02T05:44:54;14.90;;;8.80;;
33104;SDS011;19476;51.448;6.674;2023-07-02T05:47:20;14.98;;;7.85;;
33104;SDS011;19476;51.448;6.674;2023-07-02T05:49:45;19.90;;;9.43;;
33104;SDS011;19476;51.448;6.674;2023-07-02T05:52:11;15.07;;;8.07;;
33104;SDS011;19476;51.448;6.674;2023-07-02T05:54:40;17.40;;;8.15;;
33104;SDS011;19476;51.448;6.674;2023-07-02T05:57:06;19.23;;;8.60;;
33104;SDS011;19476;51.448;6.674;2023-07-02T05:59:32;13.85;;;8.02;;
33104;SDS011;19476;51.448;6.674;2023-07-02T06:01:57;17.75;;;9.43;;
33104;SDS011;19476;51.448;6.674;2023-07-02T06:04:23;15.60;;;7.82;;
33104;SDS011;19476;51.448;6.674;2023-07-02T06:06:49;19.73;;;8.77;;
33104;SDS011;19476;51.448;6.674;2023-07-02T06:09:15;15.57;;;7.65;;
33104;SDS011;19476;51.448;6.674;2023-07-02T06:11:40;17.10;;;8.63;;
33104;SDS011;19476;51.448;6.674;2023-07-02T06:14:06;17.45;;;8.23;;
33104;SDS011;19476;51.448;6.674;2023-07-02T06:16:32;15.65;;;8.35;;
33104;SDS011;19476;51.448;6.674;2023-07-02T06:18:58;20.10;;;8.30;;
33104;SDS011;19476;51.448;6.674;2023-07-02T06:21:24;14.93;;;7.95;;
33104;SDS011;19476;51.448;6.674;2023-07-02T06:23:54;13.90;;;6.90;;
33104;SDS011;19476;51.448;6.674;2023-07-02T06:26:21;16.92;;;7.63;;
33104;SDS011;19476;51.448;6.674;2023-07-02T06:28:47;16.08;;;7.30;;
33104;SDS011;19476;51.448;6.674;2023-07-02T06:31:13;13.50;;;7.13;;
33104;SDS011;19476;51.448;6.674;2023-07-02T06:33:39;14.88;;;6.78;;
33104;SDS011;19476;51.448;6.674;2023-07-02T06:36:05;13.65;;;6.97;;
33104;SDS011;19476;51.448;6.674;2023-07-02T06:38:31;16.38;;;7.10;;
33104;SDS011;19476;51.448;6.674;2023-07-02T06:40:57;16.10;;;7.20;;
33104;SDS011;19476;51.448;6.674;2023-07-02T06:43:23;13.68;;;6.97;;
33104;SDS011;19476;51.448;6.674;2023-07-02T06:45:48;15.43;;;6.82;;
33104;SDS011;19476;51.448;6.674;2023-07-02T06:48:15;14.98;;;7.03;;
33104;SDS011;19476;51.448;6.674;2023-07-02T06:50:46;15.60;;;7.38;;
33104;SDS011;19476;51.448;6.674;2023-07-02T06:53:11;14.77;;;7.35;;
33104;SDS011;19476;51.448;6.674;2023-07-02T06:55:37;15.35;;;6.63;;
33104;SDS011;19476;51.448;6.674;2023-07-02T06:58:06;14.73;;;6.93;;
33104;SDS011;19476;51.448;6.674;2023-07-02T07:00:34;16.23;;;7.72;;
33104;SDS011;19476;51.448;6.674;2023-07-02T07:03:03;15.63;;;7.07;;
33104;SDS011;19476;51.448;6.674;2023-07-02T07:05:30;13.77;;;7.32;;
33104;SDS011;19476;51.448;6.674;2023-07-02T07:07:56;17.35;;;7.78;;
33104;SDS011;19476;51.448;6.674;2023-07-02T07:10:22;14.65;;;6.90;;
33104;SDS011;19476;51.448;6.674;2023-07-02T07:12:48;15.13;;;7.20;;
33104;SDS011;19476;51.448;6.674;2023-07-02T07:15:14;15.40;;;6.22;;
33104;SDS011;19476;51.448;6.674;2023-07-02T07:17:40;10.73;;;6.00;;
33104;SDS011;19476;51.448;6.674;2023-07-02T07:20:06;14.73;;;6.50;;
33104;SDS011;19476;51.448;6.674;2023-07-02T07:22:33;11.90;;;5.38;;
33104;SDS011;19476;51.448;6.674;2023-07-02T07:24:59;12.07;;;6.28;;
33104;SDS011;19476;51.448;6.674;2023-07-02T07:27:25;11.73;;;5.25;;
33104;SDS011;19476;51.448;6.674;2023-07-02T07:29:51;12.73;;;5.60;;
33104;SDS011;19476;51.448;6.674;2023-07-02T07:32:16;10.10;;;4.90;;
33104;SDS011;19476;51.448;6.674;2023-07-02T07:34:42;11.50;;;5.18;;
33104;SDS011;19476;51.448;6.674;2023-07-02T07:37:08;11.98;;;5.28;;
33104;SDS011;19476;51.448;6.674;2023-07-02T07:39:34;13.05;;;6.18;;
33104;SDS011;19476;51.448;6.674;2023-07-02T07:42:01;11.63;;;5.38;;
33104;SDS011;19476;51.448;6.674;2023-07-02T07:44:27;12.65;;;5.80;;
33104;SDS011;19476;51.448;6.674;2023-07-02T07:46:54;14.52;;;5.45;;
33104;SDS011;19476;51.448;6.674;2023-07-02T07:49:21;14.05;;;5.93;;
33104;SDS011;19476;51.448;6.674;2023-07-02T07:51:47;12.70;;;5.95;;
33104;SDS011;19476;51.448;6.674;2023-07-02T07:54:13;11.82;;;5.38;;
33104;SDS011;19476;51.448;6.674;2023-07-02T07:56:39;10.88;;;5.22;;
33104;SDS011;19476;51.448;6.674;2023-07-02T07:59:05;10.50;;;4.97;;
33104;SDS011;19476;51.448;6.674;2023-07-02T08:01:31;11.15;;;5.07;;
33104;SDS011;19476;51.448;6.674;2023-07-02T08:03:56;10.90;;;5.40;;
33104;SDS011;19476;51.448;6.674;2023-07-02T08:06:22;11.27;;;5.10;;
33104;SDS011;19476;51.448;6.674;2023-07-02T08:08:48;13.55;;;5.30;;
33104;SDS011;19476;51.448;6.674;2023-07-02T08:11:14;13.43;;;5.25;;
33104;SDS011;19476;51.448;6.674;2023-07-02T08:13:39;11.73;;;4.95;;
33104;SDS011;19476;51.448;6.674;2023-07-02T08:16:05;10.35;;;4.03;;
33104;SDS011;19476;51.448;6.674;2023-07-02T08:18:31;9.68;;;5.07;;
33104;SDS011;19476;51.448;6.674;2023-07-02T08:20:56;9.27;;;4.50;;
33104;SDS011;19476;51.448;6.674;2023-07-02T08:23:22;11.07;;;4.25;;
33104;SDS011;19476;51.448;6.674;2023-07-02T08:25:48;8.93;;;3.90;;
33104;SDS011;19476;51.448;6.674;2023-07-02T08:28:14;12.18;;;4.35;;
33104;SDS011;19476;51.448;6.674;2023-07-02T08:30:40;9.40;;;4.15;;
33104;SDS011;19476;51.448;6.674;2023-07-02T08:33:05;8.80;;;4.05;;
33104;SDS011;19476;51.448;6.674;2023-07-02T08:35:31;9.05;;;3.72;;
33104;SDS011;19476;51.448;6.674;2023-07-02T08:37:57;7.70;;;3.63;;
33104;SDS011;19476;51.448;6.674;2023-07-02T08:40:23;9.75;;;4.05;;
33104;SDS011;19476;51.448;6.674;2023-07-02T08:42:48;9.73;;;3.92;;
33104;SDS011;19476;51.448;6.674;2023-07-02T08:45:15;11.45;;;4.25;;
33104;SDS011;19476;51.448;6.674;2023-07-02T08:47:44;7.82;;;3.90;;
33104;SDS011;19476;51.448;6.674;2023-07-02T08:50:11;9.38;;;4.95;;
33104;SDS011;19476;51.448;6.674;2023-07-02T08:52:38;9.00;;;3.83;;
33104;SDS011;19476;51.448;6.674;2023-07-02T08:55:04;8.70;;;3.97;;
33104;SDS011;19476;51.448;6.674;2023-07-02T08:57:30;9.50;;;4.15;;
33104;SDS011;19476;51.448;6.674;2023-07-02T08:59:56;8.10;;;4.30;;
33104;SDS011;19476;51.448;6.674;2023-07-02T09:02:34;10.15;;;4.00;;
33104;SDS011;19476;51.448;6.674;2023-07-02T09:05:03;9.98;;;4.43;;
33104;SDS011;19476;51.448;6.674;2023-07-02T09:07:29;12.20;;;4.88;;
33104;SDS011;19476;51.448;6.674;2023-07-02T09:09:55;9.32;;;4.30;;
33104;SDS011;19476;51.448;6.674;2023-07-02T09:12:21;9.75;;;4.32;;
33104;SDS011;19476;51.448;6.674;2023-07-02T09:14:53;12.25;;;4.82;;
33104;SDS011;19476;51.448;6.674;2023-07-02T09:17:29;10.30;;;4.38;;
33104;SDS011;19476;51.448;6.674;2023-07-02T09:19:57;8.48;;;4.57;;
33104;SDS011;19476;51.448;6.674;2023-07-02T09:24:56;8.43;;;4.50;;
33104;SDS011;19476;51.448;6.674;2023-07-02T09:27:35;8.98;;;5.05;;
33104;SDS011;19476;51.448;6.674;2023-07-02T09:30:05;9.35;;;4.60;;
33104;SDS011;19476;51.448;6.674;2023-07-02T09:32:37;9.20;;;5.07;;
33104;SDS011;19476;51.448;6.674;2023-07-02T09:35:03;8.73;;;4.70;;
33104;SDS011;19476;51.448;6.674;2023-07-02T09:37:30;10.15;;;4.65;;
33104;SDS011;19476;51.448;6.674;2023-07-02T09:39:56;11.88;;;4.18;;
33104;SDS011;19476;51.448;6.674;2023-07-02T09:42:22;8.25;;;3.97;;
33104;SDS011;19476;51.448;6.674;2023-07-02T09:44:54;7.50;;;3.85;;
33104;SDS011;19476;51.448;6.674;2023-07-02T09:47:21;8.73;;;3.92;;
33104;SDS011;19476;51.448;6.674;2023-07-02T09:50:02;9.38;;;4.05;;
33104;SDS011;19476;51.448;6.674;2023-07-02T09:52:31;8.45;;;3.80;;
33104;SDS011;19476;51.448;6.674;2023-07-02T09:54:58;8.50;;;3.50;;
33104;SDS011;19476;51.448;6.674;2023-07-02T09:57:24;9.30;;;4.10;;
33104;SDS011;19476;51.448;6.674;2023-07-02T09:59:51;8.52;;;3.78;;
33104;SDS011;19476;51.448;6.674;2023-07-02T10:02:17;9.38;;;4.20;;
33104;SDS011;19476;51.448;6.674;2023-07-02T10:04:44;9.27;;;4.43;;
33104;SDS011;19476;51.448;6.674;2023-07-02T10:07:11;9.52;;;3.83;;
33104;SDS011;19476;51.448;6.674;2023-07-02T10:09:39;9.05;;;3.72;;
33104;SDS011;19476;51.448;6.674;2023-07-02T10:15:32;10.57;;;3.72;;
33104;SDS011;19476;51.448;6.674;2023-07-02T10:18:05;10.45;;;4.45;;
33104;SDS011;19476;51.448;6.674;2023-07-02T10:20:32;8.63;;;3.80;;
33104;SDS011;19476;51.448;6.674;2023-07-02T10:23:02;8.35;;;3.97;;
33104;SDS011;19476;51.448;6.674;2023-07-02T10:25:35;8.63;;;3.85;;
33104;SDS011;19476;51.448;6.674;2023-07-02T10:28:14;9.30;;;4.30;;
33104;SDS011;19476;51.448;6.674;2023-07-02T10:30:49;9.15;;;3.92;;
33104;SDS011;19476;51.448;6.674;2023-07-02T10:33:17;7.18;;;3.17;;
33104;SDS011;19476;51.448;6.674;2023-07-02T10:35:44;9.38;;;3.40;;
33104;SDS011;19476;51.448;6.674;2023-07-02T10:38:24;7.80;;;3.90;;
33104;SDS011;19476;51.448;6.674;2023-07-02T10:40:58;7.15;;;3.15;;
33104;SDS011;19476;51.448;6.674;2023-07-02T10:43:28;7.15;;;3.20;;
33104;SDS011;19476;51.448;6.674;2023-07-02T10:45:56;8.93;;;3.92;;
33104;SDS011;19476;51.448;6.674;2023-07-02T10:48:22;8.43;;;3.63;;
33104;SDS011;19476;51.448;6.674;2023-07-02T10:50:48;7.57;;;3.72;;
33104;SDS011;19476;51.448;6.674;2023-07-02T10:53:14;9.50;;;3.80;;
33104;SDS011;19476;51.448;6.674;2023-07-02T10:55:42;7.18;;;3.08;;
33104;SDS011;19476;51.448;6.674;2023-07-02T10:58:09;8.52;;;4.45;;
33104;SDS011;19476;51.448;6.674;2023-07-02T11:00:51;6.45;;;3.33;;
33104;SDS011;19476;51.448;6.674;2023-07-02T11:03:17;8.25;;;3.92;;
33104;SDS011;19476;51.448;6.674;2023-07-02T11:05:48;6.65;;;3.80;;
33104;SDS011;19476;51.448;6.674;2023-07-02T11:08:15;8.70;;;4.07;;
33104;SDS011;19476;51.448;6.674;2023-07-02T11:10:41;9.43;;;3.78;;
33104;SDS011;19476;51.448;6.674;2023-07-02T11:13:13;4.88;;;3.00;;
33104;SDS011;19476;51.448;6.674;2023-07-02T11:15:43;7.75;;;3.42;;
33104;SDS011;19476;51.448;6.674;2023-07-02T11:20:38;8.52;;;3.25;;
33104;SDS011;19476;51.448;6.674;2023-07-02T11:25:56;6.07;;;3.45;;
33104;SDS011;19476;51.448;6.674;2023-07-02T11:28:26;7.10;;;3.10;;
33104;SDS011;19476;51.448;6.674;2023-07-02T11:30:53;5.93;;;2.67;;
33104;SDS011;19476;51.448;6.674;2023-07-02T11:33:32;7.45;;;3.40;;
33104;SDS011;19476;51.448;6.674;2023-07-02T11:36:05;7.72;;;3.65;;
33104;SDS011;19476;51.448;6.674;2023-07-02T11:38:33;8.20;;;3.30;;
33104;SDS011;19476;51.448;6.674;2023-07-02T11:41:02;7.75;;;3.85;;
33104;SDS011;19476;51.448;6.674;2023-07-02T11:43:28;8.98;;;4.03;;
33104;SDS011;19476;51.448;6.674;2023-07-02T11:46:00;7.60;;;3.60;;
33104;SDS011;19476;51.448;6.674;2023-07-02T11:48:26;6.68;;;3.05;;
33104;SDS011;19476;51.448;6.674;2023-07-02T11:50:51;7.63;;;3.13;;
33104;SDS011;19476;51.448;6.674;2023-07-02T11:53:17;6.63;;;3.38;;
33104;SDS011;19476;51.448;6.674;2023-07-02T11:55:43;9.82;;;4.10;;
33104;SDS011;19476;51.448;6.674;2023-07-02T11:58:09;8.02;;;3.72;;
33104;SDS011;19476;51.448;6.674;2023-07-02T12:00:34;8.00;;;3.60;;
33104;SDS011;19476;51.448;6.674;2023-07-02T12:03:00;7.10;;;3.53;;
33104;SDS011;19476;51.448;6.674;2023-07-02T12:05:26;9.02;;;3.88;;
33104;SDS011;19476;51.448;6.674;2023-07-02T12:07:52;6.97;;;3.20;;
33104;SDS011;19476;51.448;6.674;2023-07-02T12:10:17;10.50;;;3.78;;
33104;SDS011;19476;51.448;6.674;2023-07-02T12:12:43;7.97;;;3.47;;
33104;SDS011;19476;51.448;6.674;2023-07-02T12:15:09;8.68;;;3.97;;
33104;SDS011;19476;51.448;6.674;2023-07-02T12:17:35;9.88;;;3.80;;
33104;SDS011;19476;51.448;6.674;2023-07-02T12:20:01;8.55;;;3.80;;
33104;SDS011;19476;51.448;6.674;2023-07-02T12:22:26;8.20;;;4.03;;
33104;SDS011;19476;51.448;6.674;2023-07-02T12:24:52;9.93;;;4.40;;
33104;SDS011;19476;51.448;6.674;2023-07-02T12:27:21;9.10;;;4.35;;
33104;SDS011;19476;51.448;6.674;2023-07-02T12:29:47;7.22;;;3.85;;
33104;SDS011;19476;51.448;6.674;2023-07-02T12:32:14;10.10;;;4.50;;
33104;SDS011;19476;51.448;6.674;2023-07-02T12:34:40;8.23;;;4.03;;
33104;SDS011;19476;51.448;6.674;2023-07-02T12:37:05;9.00;;;4.43;;
33104;SDS011;19476;51.448;6.674;2023-07-02T12:39:31;8.27;;;3.80;;
33104;SDS011;19476;51.448;6.674;2023-07-02T12:41:57;8.13;;;3.85;;
33104;SDS011;19476;51.448;6.674;2023-07-02T12:44:22;9.32;;;4.28;;
33104;SDS011;19476;51.448;6.674;2023-07-02T12:46:48;8.77;;;4.15;;
33104;SDS011;19476;51.448;6.674;2023-07-02T12:49:14;9.70;;;4.22;;
33104;SDS011;19476;51.448;6.674;2023-07-02T12:51:40;9.38;;;4.35;;
33104;SDS011;19476;51.448;6.674;2023-07-02T12:54:05;10.32;;;5.07;;
33104;SDS011;19476;51.448;6.674;2023-07-02T12:56:31;11.02;;;4.47;;
33104;SDS011;19476;51.448;6.674;2023-07-02T12:58:57;8.88;;;4.90;;
33104;SDS011;19476;51.448;6.674;2023-07-02T13:01:23;8.70;;;4.90;;
33104;SDS011;19476;51.448;6.674;2023-07-02T13:03:49;8.00;;;4.28;;
33104;SDS011;19476;51.448;6.674;2023-07-02T13:06:15;8.13;;;4.78;;
33104;SDS011;19476;51.448;6.674;2023-07-02T13:08:41;10.48;;;5.25;;
33104;SDS011;19476;51.448;6.674;2023-07-02T13:11:07;10.20;;;4.65;;
33104;SDS011;19476;51.448;6.674;2023-07-02T13:13:34;10.27;;;5.55;;
33104;SDS011;19476;51.448;6.674;2023-07-02T13:16:01;10.25;;;5.13;;
33104;SDS011;19476;51.448;6.674;2023-07-02T13:18:27;11.68;;;5.38;;
33104;SDS011;19476;51.448;6.674;2023-07-02T13:20:53;10.75;;;5.10;;
33104;SDS011;19476;51.448;6.674;2023-07-02T13:23:19;10.00;;;5.05;;
33104;SDS011;19476;51.448;6.674;2023-07-02T13:25:45;9.10;;;5.03;;
33104;SDS011;19476;51.448;6.674;2023-07-02T13:28:11;9.77;;;4.28;;
33104;SDS011;19476;51.448;6.674;2023-07-02T13:30:37;10.23;;;5.15;;
33104;SDS011;19476;51.448;6.674;2023-07-02T13:33:03;10.25;;;5.40;;
33104;SDS011;19476;51.448;6.674;2023-07-02T13:35:28;11.73;;;5.05;;
33104;SDS011;19476;51.448;6.674;2023-07-02T13:37:54;12.30;;;5.65;;
33104;SDS011;19476;51.448;6.674;2023-07-02T13:40:20;14.35;;;5.65;;
33104;SDS011;19476;51.448;6.674;2023-07-02T13:42:46;7.90;;;4.45;;
33104;SDS011;19476;51.448;6.674;2023-07-02T13:45:12;11.88;;;5.40;;
33104;SDS011;19476;51.448;6.674;2023-07-02T13:47:37;11.38;;;4.90;;
33104;SDS011;19476;51.448;6.674;2023-07-02T13:50:03;9.73;;;5.30;;
33104;SDS011;19476;51.448;6.674;2023-07-02T13:52:30;12.25;;;5.47;;
33104;SDS011;19476;51.448;6.674;2023-07-02T13:54:55;13.63;;;5.70;;
33104;SDS011;19476;51.448;6.674;2023-07-02T13:57:21;8.65;;;4.80;;
33104;SDS011;19476;51.448;6.674;2023-07-02T13:59:47;12.10;;;6.03;;
33104;SDS011;19476;51.448;6.674;2023-07-02T14:02:13;12.60;;;5.90;;
33104;SDS011;19476;51.448;6.674;2023-07-02T14:04:39;10.50;;;4.78;;
33104;SDS011;19476;51.448;6.674;2023-07-02T14:07:05;10.57;;;5.13;;
33104;SDS011;19476;51.448;6.674;2023-07-02T14:09:31;12.00;;;5.82;;
33104;SDS011;19476;51.448;6.674;2023-07-02T14:11:57;12.13;;;5.22;;
33104;SDS011;19476;51.448;6.674;2023-07-02T14:14:23;10.10;;;5.47;;
33104;SDS011;19476;51.448;6.674;2023-07-02T14:16:48;9.65;;;5.25;;
33104;SDS011;19476;51.448;6.674;2023-07-02T14:19:14;11.60;;;5.45;;
33104;SDS011;19476;51.448;6.674;2023-07-02T14:21:42;11.00;;;5.75;;
33104;SDS011;19476;51.448;6.674;2023-07-02T14:24:08;9.93;;;5.20;;
33104;SDS011;19476;51.448;6.674;2023-07-02T14:26:34;12.13;;;5.53;;
33104;SDS011;19476;51.448;6.674;2023-07-02T14:29:00;10.00;;;5.18;;
33104;SDS011;19476;51.448;6.674;2023-07-02T14:31:26;10.00;;;4.75;;
33104;SDS011;19476;51.448;6.674;2023-07-02T14:33:52;9.18;;;4.80;;
33104;SDS011;19476;51.448;6.674;2023-07-02T14:36:18;10.63;;;5.50;;
33104;SDS011;19476;51.448;6.674;2023-07-02T14:38:43;11.07;;;4.93;;
33104;SDS011;19476;51.448;6.674;2023-07-02T14:41:09;9.00;;;5.22;;
33104;SDS011;19476;51.448;6.674;2023-07-02T14:43:35;9.50;;;5.28;;
33104;SDS011;19476;51.448;6.674;2023-07-02T14:46:02;10.20;;;5.05;;
33104;SDS011;19476;51.448;6.674;2023-07-02T14:48:28;9.48;;;5.25;;
33104;SDS011;19476;51.448;6.674;2023-07-02T14:50:58;13.48;;;5.63;;
33104;SDS011;19476;51.448;6.674;2023-07-02T14:53:26;10.45;;;5.50;;
33104;SDS011;19476;51.448;6.674;2023-07-02T14:55:54;10.32;;;5.38;;
33104;SDS011;19476;51.448;6.674;2023-07-02T14:58:21;11.23;;;5.25;;
33104;SDS011;19476;51.448;6.674;2023-07-02T15:00:52;10.38;;;5.22;;
33104;SDS011;19476;51.448;6.674;2023-07-02T15:03:20;9.70;;;5.05;;
33104;SDS011;19476;51.448;6.674;2023-07-02T15:05:50;8.70;;;3.90;;